Time;durP1;ratioP1;P1;durP2;ratioP2;P2;SDS_P1;SDS_P2;PMS_P1;PMS_P2;Temp;Humidity;BMP_temperature;BMP_pressure;BME280_temperature;BME280_humidity;BME280_pressure;Samples;Min_cycle;Max_cycle;Signal;HPM_P1;HPM_P2
2023/03/08 00:00:06;;;;;;;0.80;0.47;;;;;;;-0.26;57.86;98917.41;5093082;28;20032;-66
2023/03/08 00:02:31;;;;;;;1.23;0.40;;;;;;;-0.04;57.51;98918.38;5093225;28;20101;-64
2023/03/08 00:04:57;;;;;;;3.60;0.43;;;;;;;0.00;57.60;98919.69;5090880;28;20039;-66
2023/03/08 00:07:23;;;;;;;1.83;0.40;;;;;;;0.01;57.47;98920.50;5090889;28;20474;-66
2023/03/08 00:09:48;;;;;;;5.65;0.40;;;;;;;-0.04;57.10;98940.34;5093180;28;20058;-65
2023/03/08 00:12:17;;;;;;;0.65;0.22;;;;;;;0.03;58.72;98924.59;5107937;28;20501;-66
2023/03/08 00:14:43;;;;;;;1.17;0.35;;;;;;;-0.08;59.04;98927.66;5092854;28;20023;-66
2023/03/08 00:17:09;;;;;;;1.45;0.60;;;;;;;-0.05;59.01;98933.41;5092656;28;20073;-66
2023/03/08 00:19:34;;;;;;;1.02;0.30;;;;;;;-0.10;58.78;98927.00;5092842;28;20095;-66
2023/03/08 00:22:00;;;;;;;0.77;0.30;;;;;;;-0.09;58.79;98941.88;5093283;28;20024;-66
2023/03/08 00:24:26;;;;;;;1.65;0.40;;;;;;;0.08;59.99;98943.41;5100855;28;20055;-66
2023/03/08 00:26:52;;;;;;;3.67;0.50;;;;;;;-0.06;59.15;98944.19;5101139;28;20032;-65
2023/03/08 00:29:17;;;;;;;0.70;0.38;;;;;;;-0.09;59.39;98937.41;5093286;28;20482;-66
2023/03/08 00:31:42;;;;;;;3.70;0.20;;;;;;;-0.29;57.29;98942.34;5095111;28;20032;-66
2023/03/08 00:34:08;;;;;;;0.55;0.20;;;;;;;-0.11;59.69;98957.09;5093440;28;20020;-65
2023/03/08 00:36:34;;;;;;;1.08;0.28;;;;;;;-0.29;60.03;98946.81;5092171;28;20051;-65
2023/03/08 00:38:59;;;;;;;0.60;0.20;;;;;;;-0.28;58.80;98974.88;5091257;28;20080;-66
2023/03/08 00:41:24;;;;;;;1.90;0.30;;;;;;;-0.17;59.82;98963.06;5092604;28;20551;-66
2023/03/08 00:43:50;;;;;;;1.65;0.43;;;;;;;-0.31;60.15;98976.03;5091738;28;20027;-66
2023/03/08 00:46:15;;;;;;;4.20;0.20;;;;;;;-0.32;60.50;98941.88;5092545;28;20031;-65
2023/03/08 00:48:41;;;;;;;2.15;0.50;;;;;;;-0.16;59.20;98965.56;5090517;28;20016;-66
2023/03/08 00:51:08;;;;;;;1.65;0.40;;;;;;;-0.20;59.36;98972.16;5091597;28;20477;-66
2023/03/08 00:53:33;;;;;;;1.80;0.40;;;;;;;0.10;59.00;98970.50;5092301;28;20024;-66
2023/03/08 00:56:00;;;;;;;1.10;0.32;;;;;;;-0.10;59.38;98979.88;5091859;28;20039;-66
2023/03/08 00:58:27;;;;;;;1.15;0.40;;;;;;;0.03;60.14;98971.38;5092852;28;20036;-66
2023/03/08 01:00:53;;;;;;;1.02;0.40;;;;;;;0.01;60.06;98984.78;5091814;28;20020;-66
2023/03/08 01:03:20;;;;;;;3.38;0.45;;;;;;;-0.05;59.01;98975.72;5104645;28;20034;-66
2023/03/08 01:05:48;;;;;;;0.73;0.30;;;;;;;-0.07;59.26;98975.06;5094257;28;20020;-65
2023/03/08 01:08:15;;;;;;;1.17;0.30;;;;;;;-0.02;59.05;98985.94;5090315;28;20031;-66
2023/03/08 01:10:53;;;;;;;2.70;0.40;;;;;;;-0.15;59.33;98985.69;5092009;28;20020;-66
2023/03/08 01:13:19;;;;;;;1.27;0.40;;;;;;;-0.21;59.29;98983.75;5074813;28;20519;-65
2023/03/08 01:15:46;;;;;;;1.65;0.43;;;;;;;-0.19;58.77;98987.06;5092212;28;20060;-66
2023/03/08 01:18:11;;;;;;;1.33;0.40;;;;;;;-0.28;59.18;98994.19;5091149;28;20036;-65
2023/03/08 01:20:36;;;;;;;1.13;0.30;;;;;;;-0.30;60.21;98993.56;5091545;28;20138;-65
2023/03/08 01:23:02;;;;;;;1.77;0.70;;;;;;;-0.17;59.73;98997.44;5092806;28;20036;-65
2023/03/08 01:25:28;;;;;;;0.55;0.30;;;;;;;-0.35;59.20;98995.91;5091003;28;20028;-66
2023/03/08 01:27:53;;;;;;;1.08;0.38;;;;;;;-0.20;59.82;98992.50;5090916;28;20131;-66
2023/03/08 01:30:19;;;;;;;0.85;0.20;;;;;;;-0.48;58.88;98991.16;5090889;28;20028;-66
2023/03/08 01:32:44;;;;;;;1.50;0.40;;;;;;;-0.45;59.05;98992.66;5091561;28;20036;-66
2023/03/08 01:35:10;;;;;;;2.05;0.40;;;;;;;-0.32;59.43;99000.00;5099425;28;20096;-65
2023/03/08 01:37:35;;;;;;;0.75;0.30;;;;;;;-0.43;59.25;98997.75;5098964;28;20036;-66
2023/03/08 01:40:01;;;;;;;1.35;0.30;;;;;;;-0.30;59.39;99008.56;5097121;28;20035;-65
2023/03/08 01:42:27;;;;;;;1.48;0.43;;;;;;;-0.48;58.99;98996.44;5094769;28;20024;-66
2023/03/08 01:45:02;;;;;;;1.13;0.40;;;;;;;-0.54;58.74;98997.13;5093361;28;20027;-65
2023/03/08 01:47:34;;;;;;;1.15;0.40;;;;;;;-0.33;58.77;98999.19;5093695;28;20517;-66
2023/03/08 01:50:09;;;;;;;1.27;0.40;;;;;;;-0.14;58.91;99005.84;5113103;28;20028;-66
2023/03/08 01:52:47;;;;;;;0.73;0.30;;;;;;;-0.31;59.13;99012.22;5103220;28;20459;-66
2023/03/08 01:55:14;;;;;;;0.90;0.30;;;;;;;-0.35;59.29;99010.94;5100231;28;20028;-66
2023/03/08 01:57:48;;;;;;;0.82;0.40;;;;;;;-0.50;59.03;99016.09;5078613;28;20487;-66
2023/03/08 02:00:18;;;;;;;0.93;0.30;;;;;;;-0.27;59.13;99010.88;5095436;28;20053;-65
2023/03/08 02:02:49;;;;;;;1.27;0.28;;;;;;;-0.49;59.61;99021.22;5097160;28;20032;-66
2023/03/08 02:05:16;;;;;;;0.52;0.20;;;;;;;-0.52;60.15;99018.94;5094864;28;20028;-65
2023/03/08 02:07:41;;;;;;;2.65;0.28;;;;;;;-0.32;60.14;99019.34;5094739;28;20027;-66
2023/03/08 02:10:08;;;;;;;3.53;0.32;;;;;;;-0.28;59.66;99033.03;5094204;28;20028;-66
2023/03/08 02:12:35;;;;;;;2.90;0.50;;;;;;;-0.55;59.07;99011.34;5092388;28;20058;-66
2023/03/08 02:15:04;;;;;;;1.10;0.22;;;;;;;-0.60;60.21;99023.41;5095168;28;20024;-66
2023/03/08 02:17:30;;;;;;;1.52;0.47;;;;;;;-0.34;60.00;99023.13;5094735;28;20285;-66
2023/03/08 02:20:13;;;;;;;1.00;0.13;;;;;;;-0.20;59.85;99027.69;5094437;28;20044;-68
2023/03/08 02:22:40;;;;;;;2.33;0.20;;;;;;;-0.49;59.38;99033.63;5095826;28;20067;-66
2023/03/08 02:25:25;;;;;;;1.10;0.40;;;;;;;-0.59;58.22;99033.00;5096209;28;20494;-66
2023/03/08 02:27:53;;;;;;;1.60;0.75;;;;;;;-0.49;59.66;99042.38;5094740;28;20418;-66
2023/03/08 02:30:24;;;;;;;1.63;0.50;;;;;;;-0.47;60.46;99056.22;5095259;28;20383;-66
2023/03/08 02:32:50;;;;;;;0.57;0.28;;;;;;;-0.26;60.56;99046.91;5094588;28;20028;-66
2023/03/08 02:35:16;;;;;;;0.80;0.30;;;;;;;-0.69;58.92;99043.78;5094346;28;20359;-66
2023/03/08 02:37:41;;;;;;;1.02;0.38;;;;;;;-0.41;59.60;99065.28;5093346;28;20117;-66
2023/03/08 02:40:08;;;;;;;1.10;0.20;;;;;;;-0.67;60.02;99070.81;5094315;28;20116;-65
2023/03/08 02:42:33;;;;;;;1.00;0.30;;;;;;;-0.59;60.05;99068.16;5093973;28;20089;-66
2023/03/08 02:44:58;;;;;;;0.88;0.52;;;;;;;-0.68;59.47;99074.47;5093824;28;20429;-66
2023/03/08 02:47:24;;;;;;;0.60;0.30;;;;;;;-0.60;59.96;99078.88;5094451;28;20028;-65
2023/03/08 02:49:49;;;;;;;1.50;0.28;;;;;;;-0.63;60.36;99081.88;5094376;28;20020;-65
2023/03/08 02:52:15;;;;;;;1.70;0.30;;;;;;;-0.44;59.87;99080.66;5094322;28;20031;-66
2023/03/08 02:54:40;;;;;;;1.42;0.30;;;;;;;-0.53;60.32;99072.78;5110100;28;20103;-65
2023/03/08 02:57:06;;;;;;;2.88;0.30;;;;;;;-0.37;59.60;99071.03;5094072;28;20451;-66
2023/03/08 02:59:31;;;;;;;1.88;0.50;;;;;;;-0.52;59.81;99089.44;5092838;28;20107;-66
2023/03/08 03:01:56;;;;;;;0.80;0.20;;;;;;;-0.43;59.67;99082.28;5092599;28;20027;-66
2023/03/08 03:04:22;;;;;;;0.43;0.20;;;;;;;-0.30;60.14;99082.56;5093440;28;20024;-66
2023/03/08 03:06:48;;;;;;;2.63;0.40;;;;;;;-0.24;60.01;99082.72;5093303;28;20368;-66
2023/03/08 03:09:13;;;;;;;1.98;0.30;;;;;;;-0.27;60.19;99084.88;5092728;28;20470;-66
2023/03/08 03:11:39;;;;;;;0.57;0.25;;;;;;;-0.21;60.24;99089.47;5093272;28;20039;-66
2023/03/08 03:14:06;;;;;;;1.77;0.98;;;;;;;-0.31;60.36;99087.03;5093881;28;20090;-65
2023/03/08 03:16:31;;;;;;;0.68;0.30;;;;;;;-0.32;59.73;99101.25;5092992;28;20028;-66
2023/03/08 03:18:57;;;;;;;2.17;0.38;;;;;;;-0.26;60.37;99099.75;5092952;28;20400;-66
2023/03/08 03:21:23;;;;;;;1.30;0.30;;;;;;;-0.32;60.29;99103.91;5093689;28;20081;-66
2023/03/08 03:23:49;;;;;;;1.30;0.30;;;;;;;-0.90;59.90;99017.91;5095399;28;20043;-66
2023/03/08 03:26:18;;;;;;;0.47;0.28;;;;;;;-0.38;60.64;99106.41;5102799;28;20073;-64
2023/03/08 03:28:44;;;;;;;0.68;0.30;;;;;;;-0.48;60.29;99103.97;5099721;28;20559;-65
2023/03/08 03:31:12;;;;;;;1.75;0.30;;;;;;;-0.62;60.23;99121.34;5094494;28;20024;-66
2023/03/08 03:33:38;;;;;;;1.13;0.28;;;;;;;-0.36;60.62;99117.63;5093475;28;20089;-65
2023/03/08 03:36:04;;;;;;;1.20;0.32;;;;;;;-0.17;61.10;99121.69;5093335;28;20479;-66
2023/03/08 03:38:30;;;;;;;0.73;0.28;;;;;;;-0.19;60.15;99113.94;5092320;28;20028;-65
2023/03/08 03:41:04;;;;;;;1.00;0.30;;;;;;;-0.28;60.14;99112.31;5092607;28;20103;-64
2023/03/08 03:43:29;;;;;;;2.30;0.30;;;;;;;-0.26;60.13;99115.63;5093092;28;20110;-64
2023/03/08 03:46:00;;;;;;;1.45;0.20;;;;;;;-0.15;60.06;99122.34;5093429;28;20052;-64
2023/03/08 03:48:26;;;;;;;0.50;0.30;;;;;;;-0.25;60.08;99122.53;5092234;28;20100;-64
2023/03/08 03:51:06;;;;;;;0.60;0.20;;;;;;;-0.31;60.50;99125.88;5092537;28;20028;-64
2023/03/08 03:53:33;;;;;;;2.05;0.30;;;;;;;-0.21;60.58;99128.31;5092921;28;20466;-64
2023/03/08 03:56:09;;;;;;;1.17;0.40;;;;;;;-0.48;60.45;99123.28;5092647;28;20036;-64
2023/03/08 03:58:34;;;;;;;0.68;0.30;;;;;;;-0.53;61.27;99120.31;5093531;28;20028;-64
2023/03/08 04:01:00;;;;;;;0.88;0.30;;;;;;;-0.43;60.58;99130.72;5093109;28;20563;-64
2023/03/08 04:03:26;;;;;;;0.68;0.32;;;;;;;-0.51;60.14;99134.16;5091411;28;20050;-63
2023/03/08 04:05:51;;;;;;;0.70;0.30;;;;;;;-0.61;60.54;99130.91;5095812;28;20156;-63
2023/03/08 04:08:17;;;;;;;1.02;0.30;;;;;;;-0.76;60.82;99137.88;5099332;28;20350;-63
2023/03/08 04:10:42;;;;;;;0.82;0.30;;;;;;;-0.81;61.56;99134.91;5107312;28;20024;-65
2023/03/08 04:13:10;;;;;;;0.80;0.30;;;;;;;-0.62;61.42;99128.44;5102901;28;20090;-64
2023/03/08 04:15:36;;;;;;;3.13;0.50;;;;;;;-0.72;61.66;99121.50;5092161;28;20043;-64
2023/03/08 04:18:01;;;;;;;1.77;0.32;;;;;;;-0.54;61.15;99152.19;5092277;28;20028;-64
2023/03/08 04:20:27;;;;;;;1.70;0.40;;;;;;;-0.59;62.04;99147.41;5092583;28;20126;-64
2023/03/08 04:22:52;;;;;;;0.40;0.10;;;;;;;-0.67;61.76;99155.34;5092385;28;20032;-64
2023/03/08 04:25:18;;;;;;;1.30;0.47;;;;;;;-0.70;62.16;99158.31;5092238;28;20032;-64
2023/03/08 04:27:44;;;;;;;1.42;0.30;;;;;;;-0.82;62.12;99157.84;5092544;28;20028;-64
2023/03/08 04:30:10;;;;;;;0.98;0.32;;;;;;;-0.68;62.93;99161.63;5092521;28;20031;-65
2023/03/08 04:32:36;;;;;;;1.17;0.30;;;;;;;-0.75;62.69;99158.81;5090832;28;20028;-64
2023/03/08 04:35:01;;;;;;;1.65;0.40;;;;;;;-0.71;62.21;99175.16;5091824;28;20436;-64
2023/03/08 04:37:27;;;;;;;1.95;0.40;;;;;;;-0.62;62.08;99162.78;5091576;28;20043;-64
2023/03/08 04:39:54;;;;;;;0.57;0.40;;;;;;;-0.69;62.34;99165.25;5092430;28;20494;-63
2023/03/08 04:42:19;;;;;;;1.70;0.38;;;;;;;-0.74;62.47;99162.28;5091861;28;20081;-63
2023/03/08 04:44:44;;;;;;;2.40;0.60;;;;;;;-0.79;62.38;99170.72;5090756;28;20024;-63
2023/03/08 04:47:10;;;;;;;2.20;0.30;;;;;;;-0.87;62.09;99175.16;5092491;28;20035;-63
2023/03/08 04:49:35;;;;;;;0.52;0.20;;;;;;;-1.11;62.53;99176.00;5092258;28;20028;-63
2023/03/08 04:52:01;;;;;;;1.10;0.30;;;;;;;-1.00;62.20;99181.75;5091757;28;20112;-63
2023/03/08 04:54:26;;;;;;;1.33;0.30;;;;;;;-1.02;62.56;99182.94;5092575;28;20028;-63
2023/03/08 04:56:52;;;;;;;0.77;0.30;;;;;;;-0.91;61.71;99179.94;5092807;28;20032;-63
2023/03/08 04:59:17;;;;;;;0.82;0.30;;;;;;;-1.07;62.57;99185.22;5092714;28;20041;-63
2023/03/08 05:01:43;;;;;;;1.73;0.40;;;;;;;-1.13;62.41;99188.53;5093131;28;20035;-63
2023/03/08 05:04:11;;;;;;;1.63;0.30;;;;;;;-1.20;62.42;99183.88;5107282;28;20031;-63
2023/03/08 05:06:37;;;;;;;3.33;0.40;;;;;;;-1.15;62.14;99177.31;5113542;28;20022;-65
2023/03/08 05:09:03;;;;;;;1.30;0.30;;;;;;;-1.31;62.04;99178.13;5102381;28;20081;-63
2023/03/08 05:11:29;;;;;;;3.03;0.40;;;;;;;-1.26;61.88;99181.06;5092401;28;20032;-64
2023/03/08 05:13:57;;;;;;;1.02;0.40;;;;;;;-1.32;62.24;99185.22;5092712;28;20081;-64
2023/03/08 05:16:23;;;;;;;1.27;0.40;;;;;;;-1.57;62.40;99179.06;5093545;28;20055;-64
2023/03/08 05:18:49;;;;;;;3.45;0.45;;;;;;;-1.54;61.88;99183.19;5090060;28;20042;-63
2023/03/08 05:21:17;;;;;;;0.70;0.30;;;;;;;-1.50;61.88;99190.59;5091279;28;20035;-63
2023/03/08 05:23:43;;;;;;;2.78;0.40;;;;;;;-1.52;62.05;99183.88;5091424;28;20032;-63
2023/03/08 05:26:12;;;;;;;1.67;0.40;;;;;;;-1.59;62.16;99181.03;5090199;28;20043;-62
2023/03/08 05:28:38;;;;;;;0.98;0.38;;;;;;;-1.69;61.62;99194.38;5090955;28;20081;-63
2023/03/08 05:31:06;;;;;;;1.40;0.38;;;;;;;-1.76;62.08;99197.78;5094484;28;20016;-63
2023/03/08 05:33:33;;;;;;;1.10;0.40;;;;;;;-1.90;61.88;99194.75;5095219;28;20028;-64
2023/03/08 05:35:58;;;;;;;1.20;0.32;;;;;;;-1.93;62.32;99195.06;5096192;28;20135;-64
2023/03/08 05:38:25;;;;;;;1.25;0.30;;;;;;;-2.02;62.07;99201.31;5094963;28;20341;-63
2023/03/08 05:40:51;;;;;;;1.65;0.40;;;;;;;-2.29;62.39;99189.13;5097557;28;20030;-63
2023/03/08 05:43:17;;;;;;;1.55;0.47;;;;;;;-2.24;62.11;99202.69;5098136;28;20024;-64
2023/03/08 05:45:52;;;;;;;1.23;0.50;;;;;;;-2.43;62.28;99203.72;5110881;28;20061;-63
2023/03/08 05:48:17;;;;;;;;;;;;;;;-2.50;61.98;99205.31;5110268;28;20120;-63
2023/03/08 05:50:43;;;;;;;0.82;0.30;;;;;;;-2.64;62.16;99206.72;5098838;28;19981;-63
2023/03/08 05:53:08;;;;;;;3.67;0.30;;;;;;;-2.73;62.72;99222.59;5095667;28;20534;-62
2023/03/08 05:55:34;;;;;;;1.58;0.40;;;;;;;-2.84;62.35;99229.75;5095851;28;20035;-63
2023/03/08 05:57:59;;;;;;;2.42;0.40;;;;;;;-2.96;62.51;99228.31;5095205;28;20530;-64
2023/03/08 06:00:25;;;;;;;2.95;0.40;;;;;;;-3.01;63.15;99235.00;5094463;28;20039;-63
2023/03/08 06:02:50;;;;;;;1.23;0.40;;;;;;;-3.09;63.00;99235.78;5095119;28;20486;-62
2023/03/08 06:05:15;;;;;;;0.98;0.52;;;;;;;-3.14;63.37;99236.22;5095186;28;20482;-63
2023/03/08 06:07:42;;;;;;;1.75;0.38;;;;;;;-3.17;62.97;99240.97;5095352;28;20021;-63
2023/03/08 06:10:08;;;;;;;1.70;0.40;;;;;;;-3.30;63.03;99230.81;5093832;28;20024;-62
2023/03/08 06:12:34;;;;;;;3.10;0.43;;;;;;;-3.25;63.35;99238.25;5093236;28;20266;-62
2023/03/08 06:14:59;;;;;;;18.17;9.32;;;;;;;-3.32;63.25;99238.84;5091927;28;20123;-62
2023/03/08 06:17:24;;;;;;;4.20;2.30;;;;;;;-3.27;63.17;99243.66;5092398;28;20032;-62
2023/03/08 06:19:50;;;;;;;2.10;1.10;;;;;;;-3.31;63.38;99245.78;5091598;28;20051;-62
2023/03/08 06:22:16;;;;;;;5.80;3.25;;;;;;;-3.37;63.42;99241.09;5093206;28;20024;-63
2023/03/08 06:24:41;;;;;;;4.00;2.72;;;;;;;-3.35;63.06;99244.38;5093441;28;20024;-63
2023/03/08 06:27:07;;;;;;;7.20;3.35;;;;;;;-3.36;63.00;99242.75;5093509;28;20077;-64
2023/03/08 06:29:32;;;;;;;4.35;1.52;;;;;;;-3.35;63.26;99244.38;5094789;28;20039;-64
2023/03/08 06:31:58;;;;;;;2.50;0.70;;;;;;;-3.29;63.36;99244.78;5094949;28;20107;-63
2023/03/08 06:34:23;;;;;;;1.20;0.63;;;;;;;-3.23;63.16;99238.94;5107886;28;20118;-63
2023/03/08 06:36:50;;;;;;;1.40;0.40;;;;;;;-3.16;63.33;99245.25;5103131;28;20046;-62
2023/03/08 06:39:16;;;;;;;2.13;0.40;;;;;;;-3.13;63.18;99240.50;5106623;28;20032;-63
2023/03/08 06:41:41;;;;;;;2.10;0.40;;;;;;;-3.09;62.77;99243.66;5104972;28;20144;-63
2023/03/08 06:44:08;;;;;;;0.65;0.35;;;;;;;-2.98;62.95;99250.50;5095045;28;20092;-62
2023/03/08 06:46:34;;;;;;;1.55;0.63;;;;;;;-2.91;62.83;99251.56;5092825;28;20087;-63
2023/03/08 06:49:00;;;;;;;1.88;0.55;;;;;;;-2.87;63.01;99245.03;5092110;28;20337;-63
2023/03/08 06:51:25;;;;;;;1.35;0.32;;;;;;;-2.79;62.89;99260.06;5094436;28;20031;-63
2023/03/08 06:53:51;;;;;;;6.18;2.53;;;;;;;-2.71;63.09;99257.50;5094695;28;20028;-62
2023/03/08 06:56:17;;;;;;;1.85;0.50;;;;;;;-2.71;63.00;99253.06;5094149;28;20035;-62
2023/03/08 06:58:44;;;;;;;2.20;0.57;;;;;;;-2.60;63.22;99259.88;5094547;28;20424;-63
2023/03/08 07:01:11;;;;;;;2.63;0.80;;;;;;;-2.46;62.99;99259.31;5094537;28;20028;-62
2023/03/08 07:03:37;;;;;;;5.03;2.58;;;;;;;-2.37;62.82;99262.84;5094493;28;20020;-63
2023/03/08 07:06:07;;;;;;;5.47;2.88;;;;;;;-2.20;63.38;99263.78;5094223;28;20073;-63
2023/03/08 07:08:33;;;;;;;4.03;2.80;;;;;;;-2.06;62.84;99268.47;5094792;28;20028;-63
2023/03/08 07:10:59;;;;;;;4.03;2.92;;;;;;;-1.92;62.93;99273.19;5094379;28;20054;-63
2023/03/08 07:13:25;;;;;;;2.80;1.70;;;;;;;-1.78;63.23;99268.31;5096799;28;20099;-62
2023/03/08 07:15:51;;;;;;;3.55;1.30;;;;;;;-1.63;63.32;99269.34;5104249;28;20054;-63
2023/03/08 07:18:17;;;;;;;1.67;1.10;;;;;;;-1.49;62.79;99274.06;5114411;28;20004;-64
2023/03/08 07:20:43;;;;;;;1.40;0.70;;;;;;;-1.40;62.67;99274.88;5106430;28;20048;-63
2023/03/08 07:23:08;;;;;;;2.35;1.15;;;;;;;-1.27;62.67;99280.53;5093321;28;20431;-62
2023/03/08 07:25:33;;;;;;;2.03;0.90;;;;;;;-1.12;62.85;99282.56;5094205;28;20028;-63
2023/03/08 07:27:59;;;;;;;3.28;0.70;;;;;;;-1.05;62.46;99251.91;5092706;28;20031;-63
2023/03/08 07:30:25;;;;;;;1.33;0.60;;;;;;;-0.78;62.40;99278.00;5093799;28;20390;-63
2023/03/08 07:32:54;;;;;;;2.40;0.60;;;;;;;-0.61;62.60;99281.47;5092968;28;20028;-63
2023/03/08 07:35:19;;;;;;;1.88;0.50;;;;;;;-0.49;61.77;99284.63;5093158;28;20036;-63
2023/03/08 07:37:46;;;;;;;2.00;0.60;;;;;;;-0.83;62.00;99206.38;5093985;28;20036;-64
2023/03/08 07:40:15;;;;;;;1.15;0.40;;;;;;;-0.22;61.74;99286.09;5093674;28;20035;-63
2023/03/08 07:42:41;;;;;;;1.02;0.60;;;;;;;-0.14;61.82;99287.88;5093895;28;20107;-63
2023/03/08 07:45:07;;;;;;;1.73;0.50;;;;;;;-0.03;61.66;99291.03;5092335;28;20058;-63
2023/03/08 07:47:32;;;;;;;2.38;0.63;;;;;;;0.10;61.84;99300.22;5093810;28;20024;-63
2023/03/08 07:49:58;;;;;;;0.75;0.30;;;;;;;0.16;61.86;99284.50;5092489;28;20055;-63
2023/03/08 07:52:28;;;;;;;1.52;0.35;;;;;;;0.36;61.62;99300.00;5092421;28;20032;-64
2023/03/08 07:54:53;;;;;;;2.33;0.40;;;;;;;0.35;61.74;99298.38;5093770;28;20067;-63
2023/03/08 07:57:19;;;;;;;0.80;0.30;;;;;;;0.39;61.64;99304.97;5093275;28;20067;-63
2023/03/08 07:59:44;;;;;;;1.13;0.52;;;;;;;0.51;61.24;99303.59;5091839;28;20047;-63
2023/03/08 08:02:14;;;;;;;2.33;0.70;;;;;;;0.57;61.12;99304.75;5093197;28;20172;-63
2023/03/08 08:04:40;;;;;;;4.30;0.73;;;;;;;0.69;61.00;99311.28;5092804;28;20069;-65
2023/03/08 08:07:06;;;;;;;1.45;0.70;;;;;;;0.73;61.14;99317.91;5092502;28;20032;-63
2023/03/08 08:09:32;;;;;;;1.33;0.70;;;;;;;0.70;61.06;99303.19;5093414;28;20044;-64
2023/03/08 08:11:58;;;;;;;2.00;0.73;;;;;;;0.84;61.10;99317.53;5091975;28;20040;-63
2023/03/08 08:14:23;;;;;;;2.28;0.75;;;;;;;1.02;61.00;99321.72;5092642;28;20020;-63
2023/03/08 08:16:49;;;;;;;1.67;0.65;;;;;;;1.15;60.61;99327.28;5092497;28;20145;-64
2023/03/08 08:19:15;;;;;;;1.20;0.40;;;;;;;1.37;60.31;99323.84;5092691;28;20039;-62
2023/03/08 08:21:41;;;;;;;3.53;0.68;;;;;;;1.53;59.70;99330.84;5093124;28;20343;-64
2023/03/08 08:24:07;;;;;;;0.90;0.50;;;;;;;1.62;59.08;99337.75;5092365;28;20039;-63
2023/03/08 08:26:33;;;;;;;1.65;0.82;;;;;;;1.62;58.88;99313.03;5092935;28;20035;-62
2023/03/08 08:28:58;;;;;;;2.60;0.70;;;;;;;1.92;58.68;99339.66;5092675;28;20024;-62
2023/03/08 08:31:29;;;;;;;1.35;0.60;;;;;;;1.81;58.95;99338.25;5092543;28;20036;-62
2023/03/08 08:33:55;;;;;;;2.75;0.57;;;;;;;1.93;57.91;99338.66;5091667;28;20039;-64
2023/03/08 08:36:21;;;;;;;2.38;0.63;;;;;;;1.88;56.70;99340.00;5092024;28;20415;-75
2023/03/08 08:38:47;;;;;;;3.40;0.50;;;;;;;1.83;56.40;99342.38;5092145;28;20032;-62
2023/03/08 08:41:15;;;;;;;1.00;0.50;;;;;;;1.94;56.44;99345.59;5074250;28;20032;-62
2023/03/08 08:43:41;;;;;;;0.60;0.38;;;;;;;1.92;57.10;99344.94;5092803;28;20152;-63
2023/03/08 08:46:07;;;;;;;0.68;0.32;;;;;;;1.97;56.34;99342.59;5091146;28;20052;-63
2023/03/08 08:48:33;;;;;;;1.60;0.57;;;;;;;1.91;56.08;99345.97;5092781;28;20028;-63
2023/03/08 08:51:00;;;;;;;3.47;0.60;;;;;;;1.98;55.25;99346.88;5092823;28;20145;-64
2023/03/08 08:53:26;;;;;;;0.82;0.40;;;;;;;1.98;54.96;99347.72;5092267;28;20024;-62
2023/03/08 08:55:51;;;;;;;1.23;0.40;;;;;;;2.18;54.61;99340.06;5098446;28;20032;-64
2023/03/08 08:58:17;;;;;;;1.10;0.40;;;;;;;2.14;55.29;99332.66;5110709;28;20043;-67
2023/03/08 09:00:43;;;;;;;1.42;0.50;;;;;;;2.16;53.76;99335.97;5103894;28;20056;-62
2023/03/08 09:03:09;;;;;;;1.92;0.52;;;;;;;2.30;53.39;99338.63;5092768;28;20104;-63
2023/03/08 09:05:38;;;;;;;2.85;0.70;;;;;;;2.34;53.22;99337.25;5095234;28;20059;-62
2023/03/08 09:08:04;;;;;;;1.40;0.60;;;;;;;2.42;52.64;99338.16;5096535;28;20051;-62
2023/03/08 09:10:32;;;;;;;3.13;0.70;;;;;;;2.49;53.11;99347.88;5096370;28;20103;-63
2023/03/08 09:12:59;;;;;;;3.60;0.60;;;;;;;2.39;52.21;99343.88;5096158;28;20040;-63
2023/03/08 09:15:24;;;;;;;1.73;0.77;;;;;;;2.27;52.76;99354.09;5094616;28;20116;-63
2023/03/08 09:17:50;;;;;;;1.00;0.57;;;;;;;2.32;52.51;99335.81;5096161;28;20058;-62
2023/03/08 09:20:16;;;;;;;1.08;0.60;;;;;;;2.49;52.63;99339.09;5095315;28;20071;-62
2023/03/08 09:22:42;;;;;;;0.98;0.52;;;;;;;2.64;52.18;99339.91;5096341;28;20032;-63
2023/03/08 09:25:09;;;;;;;2.58;0.50;;;;;;;2.71;52.26;99340.81;5095401;28;20028;-63
2023/03/08 09:27:35;;;;;;;1.52;0.50;;;;;;;2.82;53.16;99345.69;5095649;28;20084;-62
2023/03/08 09:30:01;;;;;;;3.17;0.70;;;;;;;2.78;53.47;99348.88;5096197;28;20028;-63
2023/03/08 09:32:26;;;;;;;4.75;0.60;;;;;;;2.71;53.41;99348.78;5096180;28;20035;-62
2023/03/08 09:34:52;;;;;;;2.00;0.65;;;;;;;2.79;52.71;99355.84;5095950;28;20119;-62
2023/03/08 09:37:18;;;;;;;1.83;0.60;;;;;;;2.87;53.39;99350.44;5095438;28;20032;-63
2023/03/08 09:39:44;;;;;;;1.30;0.45;;;;;;;2.86;53.20;99358.59;5095051;28;20093;-63
2023/03/08 09:42:26;;;;;;;2.75;0.60;;;;;;;2.93;53.16;99354.19;5095519;28;20059;-63
2023/03/08 09:45:16;;;;;;;1.02;0.50;;;;;;;3.03;53.12;99355.53;5095080;28;20073;-64
2023/03/08 09:48:03;;;;;;;1.98;0.50;;;;;;;3.12;53.38;99350.13;5109315;28;20031;-68
2023/03/08 09:50:41;;;;;;;2.33;0.70;;;;;;;3.34;53.47;99351.78;5111061;28;20027;-63
2023/03/08 09:53:28;;;;;;;2.63;0.45;;;;;;;3.43;52.63;99357.84;5096995;28;20052;-64
2023/03/08 09:56:28;;;;;;;3.97;0.50;;;;;;;3.29;53.40;99360.34;5095384;28;20024;-64
2023/03/08 09:59:15;;;;;;;1.13;0.52;;;;;;;3.24;52.31;99365.38;5091987;28;20040;-64
2023/03/08 10:01:46;;;;;;;0.80;0.40;;;;;;;3.22;53.09;99348.81;5093892;28;20046;-64
2023/03/08 10:04:28;;;;;;;4.07;0.55;;;;;;;3.42;52.52;99359.66;5094914;28;20099;-64
2023/03/08 10:06:56;;;;;;;2.08;0.40;;;;;;;3.28;52.37;99358.72;5094878;28;20032;-64
2023/03/08 10:09:43;;;;;;;2.58;0.40;;;;;;;3.35;52.88;99364.09;5094290;28;20028;-64
2023/03/08 10:12:33;;;;;;;2.03;0.40;;;;;;;3.28;53.30;99363.22;5095063;28;20048;-64
2023/03/08 10:15:16;;;;;;;1.98;0.55;;;;;;;3.20;53.10;99369.44;5093628;28;20028;-64
2023/03/08 10:17:53;;;;;;;3.30;0.63;;;;;;;3.18;53.25;99374.13;5094571;28;20059;-63
2023/03/08 10:20:30;;;;;;;1.65;0.50;;;;;;;3.23;52.63;99377.03;5096255;28;20074;-65
2023/03/08 10:23:02;;;;;;;2.15;0.50;;;;;;;3.08;52.46;99352.34;5093768;28;20489;-63
2023/03/08 10:25:30;;;;;;;1.95;0.50;;;;;;;3.30;52.42;99377.94;5095646;28;20023;-63
2023/03/08 10:27:57;;;;;;;3.72;0.50;;;;;;;3.19;52.73;99354.50;5095284;28;20105;-64
2023/03/08 10:30:47;;;;;;;1.70;0.60;;;;;;;3.44;52.75;99383.41;5095021;28;20095;-65
2023/03/08 10:33:16;;;;;;;1.63;0.40;;;;;;;3.51;52.55;99395.78;5095096;28;20100;-64
2023/03/08 10:36:04;;;;;;;1.08;0.50;;;;;;;3.49;53.17;99399.63;5113519;28;20031;-64
2023/03/08 10:38:33;;;;;;;2.60;0.40;;;;;;;3.56;52.48;99413.81;5096404;28;20131;-64
2023/03/08 10:41:00;;;;;;;3.65;0.57;;;;;;;3.57;53.31;99406.66;5094618;28;20031;-64
2023/03/08 10:43:26;;;;;;;1.67;0.50;;;;;;;3.50;53.53;99410.06;5096727;28;20039;-64
2023/03/08 10:46:05;;;;;;;2.40;0.60;;;;;;;3.62;53.00;99412.25;5095966;28;20039;-64
2023/03/08 10:48:31;;;;;;;1.45;0.40;;;;;;;3.51;53.10;99393.13;5093724;28;20490;-64
2023/03/08 10:50:58;;;;;;;1.20;0.40;;;;;;;3.68;52.81;99409.66;5093509;28;20031;-64
2023/03/08 10:53:28;;;;;;;0.80;0.20;;;;;;;3.76;53.53;99406.06;5093713;28;20024;-64
2023/03/08 10:55:54;;;;;;;1.23;0.52;;;;;;;3.57;52.93;99404.00;5093870;28;20136;-64
2023/03/08 10:58:39;;;;;;;1.17;0.40;;;;;;;3.64;52.02;99411.06;5094513;28;20492;-64
2023/03/08 11:01:21;;;;;;;2.50;0.50;;;;;;;3.80;52.99;99411.81;5093616;28;20070;-63
2023/03/08 11:04:12;;;;;;;1.67;0.40;;;;;;;3.95;52.58;99404.59;5093010;28;20123;-64
2023/03/08 11:06:38;;;;;;;3.83;0.50;;;;;;;3.99;52.66;99405.88;5094445;28;20028;-64
2023/03/08 11:09:19;;;;;;;1.88;0.50;;;;;;;3.95;53.36;99415.25;5094313;28;20034;-64
2023/03/08 11:11:44;;;;;;;4.63;0.32;;;;;;;4.01;52.78;99409.16;5094116;28;20032;-64
2023/03/08 11:14:11;;;;;;;2.08;0.40;;;;;;;4.02;53.04;99410.00;5094117;28;20032;-64
2023/03/08 11:16:55;;;;;;;2.05;0.30;;;;;;;3.95;52.92;99417.91;5094076;28;20046;-64
2023/03/08 11:19:33;;;;;;;1.90;0.40;;;;;;;3.99;53.56;99422.66;5093394;28;20044;-64
2023/03/08 11:22:29;;;;;;;2.17;0.57;;;;;;;4.10;53.55;99413.31;5094070;28;20476;-65
2023/03/08 11:25:04;;;;;;;0.90;0.30;;;;;;;4.02;53.55;99418.78;5101885;28;20032;-64
2023/03/08 11:27:35;;;;;;;2.35;0.40;;;;;;;4.02;52.89;99424.13;5099277;28;20024;-64
2023/03/08 11:30:28;;;;;;;1.75;0.43;;;;;;;3.88;53.59;99423.16;5094433;28;20028;-64
2023/03/08 11:33:03;;;;;;;6.05;0.50;;;;;;;3.97;53.81;99421.19;5093707;28;20055;-64
2023/03/08 11:35:47;;;;;;;;;;;;;;;3.75;53.74;99418.53;5093671;28;20020;-64
2023/03/08 11:38:27;;;;;;;1.23;0.40;;;;;;;3.96;54.08;99417.69;5093562;28;19957;-65
2023/03/08 11:41:40;;;;;;;1.17;0.30;;;;;;;3.91;54.11;99427.28;5093901;28;20031;-64